CheckWX is a tool to help pilots better visualize weather data.  It is not intended as a substitute for an official pre-flight weather briefing.

16:38:17 UTC

KHIB TAF
Range Regional Airport
Hibbing, Minnesota, USA
KHIB 071403Z 0714/0812 16005KT 5SM HZ OVC009 FM071700 17007KT P6SM VCSH OVC006 FM072000 17009KT P6SM OVC012 FM080200 19009KT P6SM OVC009 WS020/22035KT FM080500 22006KT P6SM OVC008

Dec-7@
14:00 UTC

Dec-7 @ 14:00 UTC

Dec-7@
17:00 UTC

Dec-7 @ 17:00 UTC

KHIB 071403Z 0714/0812 16005KT 5SM HZ OVC009
Wind
  • 160° at 5 KTS
Conditions
Haze
Cloud Levels
  • Overcast at 900' AGL

Dec-7@
17:00 UTC

Dec-7 @ 17:00 UTC

Dec-7@
20:00 UTC

Dec-7 @ 20:00 UTC

FM071700 17007KT P6SM VCSH OVC006

From

From Standard forecast or significant change

Wind
  • 170° at 7 KTS
Cloud Levels
  • Overcast at 600' AGL

Dec-7@
20:00 UTC

Dec-7 @ 20:00 UTC

Dec-8@
02:00 UTC

Dec-8 @ 02:00 UTC

FM072000 17009KT P6SM OVC012

From

From Standard forecast or significant change

Wind
  • 170° at 9 KTS
Cloud Levels
  • Overcast at 1,200' AGL

Dec-8@
02:00 UTC

Dec-8 @ 02:00 UTC

Dec-8@
05:00 UTC

Dec-8 @ 05:00 UTC

FM080200 19009KT P6SM OVC009 WS020/22035KT

From

From Standard forecast or significant change

Wind
  • 190° at 9 KTS
Cloud Levels
  • Overcast at 900' AGL

Dec-8@
05:00 UTC

Dec-8 @ 05:00 UTC

Dec-8@
12:00 UTC

Dec-8 @ 12:00 UTC

FM080500 22006KT P6SM OVC008

From

From Standard forecast or significant change

Wind
  • 220° at 6 KTS
Cloud Levels
  • Overcast at 800' AGL